sensor_id;sensor_type;location;lat;lon;timestamp;temperature;humidity
3418;DHT22;68007;51.312;12.372;2023-12-04T00:01:43;0.40;92.10
3418;DHT22;68007;51.312;12.372;2023-12-04T00:04:12;0.40;92.10
3418;DHT22;68007;51.312;12.372;2023-12-04T00:06:42;0.40;92.10
3418;DHT22;68007;51.312;12.372;2023-12-04T00:09:09;0.40;92.10
3418;DHT22;68007;51.312;12.372;2023-12-04T00:11:37;0.30;92.10
3418;DHT22;68007;51.312;12.372;2023-12-04T00:14:04;0.40;92.20
3418;DHT22;68007;51.312;12.372;2023-12-04T00:16:33;0.40;92.10
3418;DHT22;68007;51.312;12.372;2023-12-04T00:19:01;0.40;92.00
3418;DHT22;68007;51.312;12.372;2023-12-04T00:21:29;0.30;92.00
3418;DHT22;68007;51.312;12.372;2023-12-04T00:23:57;0.30;92.20
3418;DHT22;68007;51.312;12.372;2023-12-04T00:26:25;0.30;92.40
3418;DHT22;68007;51.312;12.372;2023-12-04T00:28:53;0.30;92.10
3418;DHT22;68007;51.312;12.372;2023-12-04T00:31:20;0.30;92.10
3418;DHT22;68007;51.312;12.372;2023-12-04T00:33:48;0.30;92.10
3418;DHT22;68007;51.312;12.372;2023-12-04T00:36:15;0.30;92.10
3418;DHT22;68007;51.312;12.372;2023-12-04T00:38:43;0.30;92.10
3418;DHT22;68007;51.312;12.372;2023-12-04T00:41:12;0.40;92.10
3418;DHT22;68007;51.312;12.372;2023-12-04T00:43:39;0.30;92.00
3418;DHT22;68007;51.312;12.372;2023-12-04T00:46:07;0.30;92.10
3418;DHT22;68007;51.312;12.372;2023-12-04T00:48:34;0.40;92.10
3418;DHT22;68007;51.312;12.372;2023-12-04T00:51:02;0.40;92.10
3418;DHT22;68007;51.312;12.372;2023-12-04T00:53:29;0.40;92.10
3418;DHT22;68007;51.312;12.372;2023-12-04T00:55:57;0.30;91.80
3418;DHT22;68007;51.312;12.372;2023-12-04T00:58:26;0.30;92.00
3418;DHT22;68007;51.312;12.372;2023-12-04T01:00:53;0.30;92.00
3418;DHT22;68007;51.312;12.372;2023-12-04T01:03:23;0.30;92.10
3418;DHT22;68007;51.312;12.372;2023-12-04T01:05:52;0.30;92.40
3418;DHT22;68007;51.312;12.372;2023-12-04T01:08:20;0.30;92.00
3418;DHT22;68007;51.312;12.372;2023-12-04T01:10:47;0.30;91.90
3418;DHT22;68007;51.312;12.372;2023-12-04T01:13:15;0.30;92.00
3418;DHT22;68007;51.312;12.372;2023-12-04T01:15:43;0.30;92.00
3418;DHT22;68007;51.312;12.372;2023-12-04T01:18:12;0.30;91.80
3418;DHT22;68007;51.312;12.372;2023-12-04T01:20:40;0.30;92.00
3418;DHT22;68007;51.312;12.372;2023-12-04T01:23:08;0.30;92.10
3418;DHT22;68007;51.312;12.372;2023-12-04T01:25:35;0.30;92.00
3418;DHT22;68007;51.312;12.372;2023-12-04T01:28:03;0.30;92.00
3418;DHT22;68007;51.312;12.372;2023-12-04T01:30:30;0.30;92.00
3418;DHT22;68007;51.312;12.372;2023-12-04T01:32:59;0.30;92.10
3418;DHT22;68007;51.312;12.372;2023-12-04T01:35:27;0.30;92.00
3418;DHT22;68007;51.312;12.372;2023-12-04T01:37:54;0.30;92.10
3418;DHT22;68007;51.312;12.372;2023-12-04T01:40:22;0.30;92.10
3418;DHT22;68007;51.312;12.372;2023-12-04T01:42:49;0.30;91.90
3418;DHT22;68007;51.312;12.372;2023-12-04T01:45:16;0.30;91.90
3418;DHT22;68007;51.312;12.372;2023-12-04T01:47:45;0.30;91.90
3418;DHT22;68007;51.312;12.372;2023-12-04T01:50:15;0.30;91.80
3418;DHT22;68007;51.312;12.372;2023-12-04T01:52:43;0.30;91.90
3418;DHT22;68007;51.312;12.372;2023-12-04T01:55:12;0.20;91.90
3418;DHT22;68007;51.312;12.372;2023-12-04T01:57:39;0.20;91.90
3418;DHT22;68007;51.312;12.372;2023-12-04T02:00:08;0.20;91.90
3418;DHT22;68007;51.312;12.372;2023-12-04T02:02:38;0.20;92.00
3418;DHT22;68007;51.312;12.372;2023-12-04T02:05:07;0.20;92.10
3418;DHT22;68007;51.312;12.372;2023-12-04T02:07:36;0.30;92.00
3418;DHT22;68007;51.312;12.372;2023-12-04T02:10:05;0.30;92.00
3418;DHT22;68007;51.312;12.372;2023-12-04T02:12:33;0.20;91.90
3418;DHT22;68007;51.312;12.372;2023-12-04T02:15:00;0.30;92.00
3418;DHT22;68007;51.312;12.372;2023-12-04T02:17:29;0.30;92.00
3418;DHT22;68007;51.312;12.372;2023-12-04T02:19:56;0.20;92.10
3418;DHT22;68007;51.312;12.372;2023-12-04T02:22:24;0.20;91.90
3418;DHT22;68007;51.312;12.372;2023-12-04T02:24:53;0.20;91.80
3418;DHT22;68007;51.312;12.372;2023-12-04T02:27:28;0.20;91.90
3418;DHT22;68007;51.312;12.372;2023-12-04T02:29:58;0.20;91.90
3418;DHT22;68007;51.312;12.372;2023-12-04T02:32:28;0.20;92.00
3418;DHT22;68007;51.312;12.372;2023-12-04T02:34:56;0.20;92.00
3418;DHT22;68007;51.312;12.372;2023-12-04T02:37:26;0.20;92.00
3418;DHT22;68007;51.312;12.372;2023-12-04T02:39:55;0.20;92.00
3418;DHT22;68007;51.312;12.372;2023-12-04T02:42:24;0.20;92.00
3418;DHT22;68007;51.312;12.372;2023-12-04T02:44:52;0.20;91.90
3418;DHT22;68007;51.312;12.372;2023-12-04T02:47:19;0.20;91.80
3418;DHT22;68007;51.312;12.372;2023-12-04T02:49:47;0.20;91.90
3418;DHT22;68007;51.312;12.372;2023-12-04T02:52:14;0.20;91.80
3418;DHT22;68007;51.312;12.372;2023-12-04T02:54:42;0.20;91.80
3418;DHT22;68007;51.312;12.372;2023-12-04T02:57:11;0.20;91.80
3418;DHT22;68007;51.312;12.372;2023-12-04T02:59:38;0.30;91.80
3418;DHT22;68007;51.312;12.372;2023-12-04T03:02:06;0.20;91.80
3418;DHT22;68007;51.312;12.372;2023-12-04T03:04:34;0.30;91.80
3418;DHT22;68007;51.312;12.372;2023-12-04T03:07:02;0.20;91.80
3418;DHT22;68007;51.312;12.372;2023-12-04T03:09:29;0.20;91.70
3418;DHT22;68007;51.312;12.372;2023-12-04T03:11:57;0.20;91.60
3418;DHT22;68007;51.312;12.372;2023-12-04T03:14:26;0.20;91.70
3418;DHT22;68007;51.312;12.372;2023-12-04T03:16:53;0.20;91.90
3418;DHT22;68007;51.312;12.372;2023-12-04T03:19:21;0.20;91.90
3418;DHT22;68007;51.312;12.372;2023-12-04T03:21:48;0.20;91.70
3418;DHT22;68007;51.312;12.372;2023-12-04T03:24:16;0.20;91.60
3418;DHT22;68007;51.312;12.372;2023-12-04T03:26:43;0.20;91.80
3418;DHT22;68007;51.312;12.372;2023-12-04T03:29:11;0.20;91.80
3418;DHT22;68007;51.312;12.372;2023-12-04T03:31:40;0.20;91.60
3418;DHT22;68007;51.312;12.372;2023-12-04T03:34:07;0.10;91.70
3418;DHT22;68007;51.312;12.372;2023-12-04T03:36:35;0.20;91.80
3418;DHT22;68007;51.312;12.372;2023-12-04T03:39:02;0.10;91.80
3418;DHT22;68007;51.312;12.372;2023-12-04T03:41:30;0.20;91.90
3418;DHT22;68007;51.312;12.372;2023-12-04T03:43:58;0.20;91.80
3418;DHT22;68007;51.312;12.372;2023-12-04T03:46:25;0.20;91.70
3418;DHT22;68007;51.312;12.372;2023-12-04T03:48:55;0.20;91.60
3418;DHT22;68007;51.312;12.372;2023-12-04T03:51:22;0.20;91.80
3418;DHT22;68007;51.312;12.372;2023-12-04T03:53:50;0.20;91.70
3418;DHT22;68007;51.312;12.372;2023-12-04T03:56:17;0.20;91.80
3418;DHT22;68007;51.312;12.372;2023-12-04T03:58:45;0.20;91.70
3418;DHT22;68007;51.312;12.372;2023-12-04T04:01:12;0.10;91.60
3418;DHT22;68007;51.312;12.372;2023-12-04T04:03:39;0.10;91.60
3418;DHT22;68007;51.312;12.372;2023-12-04T04:06:10;0.10;91.70
3418;DHT22;68007;51.312;12.372;2023-12-04T04:08:38;0.00;91.50
3418;DHT22;68007;51.312;12.372;2023-12-04T04:11:05;0.00;91.60
3418;DHT22;68007;51.312;12.372;2023-12-04T04:13:33;-0.10;91.80
3418;DHT22;68007;51.312;12.372;2023-12-04T04:16:01;0.00;92.00
3418;DHT22;68007;51.312;12.372;2023-12-04T04:18:28;0.00;92.00
3418;DHT22;68007;51.312;12.372;2023-12-04T04:20:56;0.00;92.00
3418;DHT22;68007;51.312;12.372;2023-12-04T04:23:24;0.00;92.00
3418;DHT22;68007;51.312;12.372;2023-12-04T04:25:52;0.10;92.00
3418;DHT22;68007;51.312;12.372;2023-12-04T04:28:19;0.10;92.00
3418;DHT22;68007;51.312;12.372;2023-12-04T04:30:47;0.10;91.90
3418;DHT22;68007;51.312;12.372;2023-12-04T04:33:14;0.20;92.00
3418;DHT22;68007;51.312;12.372;2023-12-04T04:35:43;0.10;91.90
3418;DHT22;68007;51.312;12.372;2023-12-04T04:38:11;0.20;92.00
3418;DHT22;68007;51.312;12.372;2023-12-04T04:40:39;0.20;91.80
3418;DHT22;68007;51.312;12.372;2023-12-04T04:43:10;0.20;91.80
3418;DHT22;68007;51.312;12.372;2023-12-04T04:45:37;0.20;91.80
3418;DHT22;68007;51.312;12.372;2023-12-04T04:48:05;0.20;91.90
3418;DHT22;68007;51.312;12.372;2023-12-04T04:50:33;0.20;91.90
3418;DHT22;68007;51.312;12.372;2023-12-04T04:53:00;0.20;91.90
3418;DHT22;68007;51.312;12.372;2023-12-04T04:55:28;0.30;91.80
3418;DHT22;68007;51.312;12.372;2023-12-04T04:57:58;0.30;91.80
3418;DHT22;68007;51.312;12.372;2023-12-04T05:00:25;0.40;92.10
3418;DHT22;68007;51.312;12.372;2023-12-04T05:02:53;0.30;91.70
3418;DHT22;68007;51.312;12.372;2023-12-04T05:05:20;0.30;91.70
3418;DHT22;68007;51.312;12.372;2023-12-04T05:07:48;0.40;91.80
3418;DHT22;68007;51.312;12.372;2023-12-04T05:10:15;0.40;91.70
3418;DHT22;68007;51.312;12.372;2023-12-04T05:12:43;0.40;91.70
3418;DHT22;68007;51.312;12.372;2023-12-04T05:15:11;0.30;91.70
3418;DHT22;68007;51.312;12.372;2023-12-04T05:17:39;0.30;91.70
3418;DHT22;68007;51.312;12.372;2023-12-04T05:20:08;0.30;91.70
3418;DHT22;68007;51.312;12.372;2023-12-04T05:22:36;0.30;92.00
3418;DHT22;68007;51.312;12.372;2023-12-04T05:25:04;0.40;91.80
3418;DHT22;68007;51.312;12.372;2023-12-04T05:27:32;0.40;91.80
3418;DHT22;68007;51.312;12.372;2023-12-04T05:29:59;0.40;91.70
3418;DHT22;68007;51.312;12.372;2023-12-04T05:32:28;0.40;91.70
3418;DHT22;68007;51.312;12.372;2023-12-04T05:34:56;0.50;91.70
3418;DHT22;68007;51.312;12.372;2023-12-04T05:37:23;0.50;91.70
3418;DHT22;68007;51.312;12.372;2023-12-04T05:39:50;0.50;91.70
3418;DHT22;68007;51.312;12.372;2023-12-04T05:42:18;0.50;91.60
3418;DHT22;68007;51.312;12.372;2023-12-04T05:44:45;0.50;91.60
3418;DHT22;68007;51.312;12.372;2023-12-04T05:47:13;0.60;91.50
3418;DHT22;68007;51.312;12.372;2023-12-04T05:49:42;0.50;91.70
3418;DHT22;68007;51.312;12.372;2023-12-04T05:52:09;0.50;91.80
3418;DHT22;68007;51.312;12.372;2023-12-04T05:54:37;0.50;91.80
3418;DHT22;68007;51.312;12.372;2023-12-04T05:57:05;0.50;91.80
3418;DHT22;68007;51.312;12.372;2023-12-04T05:59:32;0.60;92.10
3418;DHT22;68007;51.312;12.372;2023-12-04T06:02:00;0.60;91.80
3418;DHT22;68007;51.312;12.372;2023-12-04T06:04:27;0.50;91.70
3418;DHT22;68007;51.312;12.372;2023-12-04T06:06:56;0.50;91.70
3418;DHT22;68007;51.312;12.372;2023-12-04T06:09:23;0.50;91.70
3418;DHT22;68007;51.312;12.372;2023-12-04T06:11:51;0.50;91.70
3418;DHT22;68007;51.312;12.372;2023-12-04T06:14:18;0.50;91.70
3418;DHT22;68007;51.312;12.372;2023-12-04T06:16:46;0.60;91.70
3418;DHT22;68007;51.312;12.372;2023-12-04T06:19:13;0.60;91.60
3418;DHT22;68007;51.312;12.372;2023-12-04T06:21:41;0.50;91.50
3418;DHT22;68007;51.312;12.372;2023-12-04T06:24:11;0.60;91.50
3418;DHT22;68007;51.312;12.372;2023-12-04T06:26:41;0.60;91.50
3418;DHT22;68007;51.312;12.372;2023-12-04T06:29:10;0.60;91.40
3418;DHT22;68007;51.312;12.372;2023-12-04T06:31:38;0.50;91.40
3418;DHT22;68007;51.312;12.372;2023-12-04T06:34:06;0.50;91.40
3418;DHT22;68007;51.312;12.372;2023-12-04T06:36:38;0.60;91.40
3418;DHT22;68007;51.312;12.372;2023-12-04T06:39:11;0.60;91.40
3418;DHT22;68007;51.312;12.372;2023-12-04T06:41:39;0.60;91.40
3418;DHT22;68007;51.312;12.372;2023-12-04T06:44:08;0.50;91.40
3418;DHT22;68007;51.312;12.372;2023-12-04T06:46:37;0.60;91.40
3418;DHT22;68007;51.312;12.372;2023-12-04T06:49:05;0.60;91.30
3418;DHT22;68007;51.312;12.372;2023-12-04T06:51:33;0.60;91.40
3418;DHT22;68007;51.312;12.372;2023-12-04T06:54:01;0.60;91.30
3418;DHT22;68007;51.312;12.372;2023-12-04T06:56:30;0.60;91.30
3418;DHT22;68007;51.312;12.372;2023-12-04T06:58:57;0.60;91.20
3418;DHT22;68007;51.312;12.372;2023-12-04T07:01:25;0.60;91.20
3418;DHT22;68007;51.312;12.372;2023-12-04T07:03:52;0.50;91.20
3418;DHT22;68007;51.312;12.372;2023-12-04T07:06:20;0.60;91.20
3418;DHT22;68007;51.312;12.372;2023-12-04T07:08:47;0.60;91.20
3418;DHT22;68007;51.312;12.372;2023-12-04T07:11:15;0.60;91.20
3418;DHT22;68007;51.312;12.372;2023-12-04T07:13:43;0.60;91.20
3418;DHT22;68007;51.312;12.372;2023-12-04T07:16:11;0.60;91.20
3418;DHT22;68007;51.312;12.372;2023-12-04T07:18:38;0.60;91.20
3418;DHT22;68007;51.312;12.372;2023-12-04T07:21:06;0.60;91.20
3418;DHT22;68007;51.312;12.372;2023-12-04T07:23:34;0.50;91.20
3418;DHT22;68007;51.312;12.372;2023-12-04T07:26:01;0.50;91.20
3418;DHT22;68007;51.312;12.372;2023-12-04T07:28:29;0.50;91.30
3418;DHT22;68007;51.312;12.372;2023-12-04T07:30:58;0.50;91.30
3418;DHT22;68007;51.312;12.372;2023-12-04T07:33:26;0.50;91.30
3418;DHT22;68007;51.312;12.372;2023-12-04T07:35:53;0.50;91.30
3418;DHT22;68007;51.312;12.372;2023-12-04T07:38:21;0.50;91.40
3418;DHT22;68007;51.312;12.372;2023-12-04T07:40:48;0.50;91.40
3418;DHT22;68007;51.312;12.372;2023-12-04T07:43:16;0.50;91.40
3418;DHT22;68007;51.312;12.372;2023-12-04T07:45:44;0.50;91.50
3418;DHT22;68007;51.312;12.372;2023-12-04T07:48:13;0.50;91.60
3418;DHT22;68007;51.312;12.372;2023-12-04T07:50:40;0.50;91.60
3418;DHT22;68007;51.312;12.372;2023-12-04T07:53:08;0.50;91.60
3418;DHT22;68007;51.312;12.372;2023-12-04T07:55:38;0.50;91.60
3418;DHT22;68007;51.312;12.372;2023-12-04T07:58:05;0.50;91.60
3418;DHT22;68007;51.312;12.372;2023-12-04T08:00:33;0.60;91.70
3418;DHT22;68007;51.312;12.372;2023-12-04T08:03:00;0.50;91.70
3418;DHT22;68007;51.312;12.372;2023-12-04T08:05:30;0.50;91.70
3418;DHT22;68007;51.312;12.372;2023-12-04T08:07:58;0.50;91.70
3418;DHT22;68007;51.312;12.372;2023-12-04T08:10:25;0.60;91.80
3418;DHT22;68007;51.312;12.372;2023-12-04T08:12:53;0.60;91.80
3418;DHT22;68007;51.312;12.372;2023-12-04T08:15:20;0.60;91.80
3418;DHT22;68007;51.312;12.372;2023-12-04T08:17:48;0.60;91.80
3418;DHT22;68007;51.312;12.372;2023-12-04T08:20:15;0.60;91.80
3418;DHT22;68007;51.312;12.372;2023-12-04T08:22:44;0.60;91.80
3418;DHT22;68007;51.312;12.372;2023-12-04T08:25:12;0.60;91.80
3418;DHT22;68007;51.312;12.372;2023-12-04T08:27:39;0.70;91.80
3418;DHT22;68007;51.312;12.372;2023-12-04T08:30:07;0.60;91.80
3418;DHT22;68007;51.312;12.372;2023-12-04T08:32:35;0.70;91.80
3418;DHT22;68007;51.312;12.372;2023-12-04T08:35:03;0.60;92.10
3418;DHT22;68007;51.312;12.372;2023-12-04T08:37:32;0.60;91.80
3418;DHT22;68007;51.312;12.372;2023-12-04T08:40:01;0.60;91.80
3418;DHT22;68007;51.312;12.372;2023-12-04T08:42:29;0.70;91.80
3418;DHT22;68007;51.312;12.372;2023-12-04T08:44:56;0.70;91.80
3418;DHT22;68007;51.312;12.372;2023-12-04T08:47:24;0.70;91.70
3418;DHT22;68007;51.312;12.372;2023-12-04T08:49:51;0.70;91.70
3418;DHT22;68007;51.312;12.372;2023-12-04T08:52:19;0.70;91.70
3418;DHT22;68007;51.312;12.372;2023-12-04T08:54:46;0.70;91.60
3418;DHT22;68007;51.312;12.372;2023-12-04T08:57:15;0.70;91.60
3418;DHT22;68007;51.312;12.372;2023-12-04T08:59:43;0.80;91.60
3418;DHT22;68007;51.312;12.372;2023-12-04T09:02:10;0.70;91.50
3418;DHT22;68007;51.312;12.372;2023-12-04T09:04:38;0.80;91.60
3418;DHT22;68007;51.312;12.372;2023-12-04T09:07:05;0.80;91.60
3418;DHT22;68007;51.312;12.372;2023-12-04T09:09:33;0.80;91.60
3418;DHT22;68007;51.312;12.372;2023-12-04T09:12:01;0.80;91.60
3418;DHT22;68007;51.312;12.372;2023-12-04T09:14:29;0.80;91.60
3418;DHT22;68007;51.312;12.372;2023-12-04T09:16:57;0.90;91.70
3418;DHT22;68007;51.312;12.372;2023-12-04T09:19:24;0.80;91.60
3418;DHT22;68007;51.312;12.372;2023-12-04T09:21:52;0.90;91.70
3418;DHT22;68007;51.312;12.372;2023-12-04T09:24:19;0.90;91.70
3418;DHT22;68007;51.312;12.372;2023-12-04T09:26:47;0.90;91.70
3418;DHT22;68007;51.312;12.372;2023-12-04T09:29:14;0.90;91.70
3418;DHT22;68007;51.312;12.372;2023-12-04T09:31:44;0.90;91.70
3418;DHT22;68007;51.312;12.372;2023-12-04T09:34:11;0.90;92.00
3418;DHT22;68007;51.312;12.372;2023-12-04T09:36:39;0.90;91.70
3418;DHT22;68007;51.312;12.372;2023-12-04T09:39:06;0.90;91.70
3418;DHT22;68007;51.312;12.372;2023-12-04T09:41:34;0.90;91.70
3418;DHT22;68007;51.312;12.372;2023-12-04T09:44:02;0.90;91.70
3418;DHT22;68007;51.312;12.372;2023-12-04T09:46:30;1.00;91.80
3418;DHT22;68007;51.312;12.372;2023-12-04T09:49:00;1.00;91.70
3418;DHT22;68007;51.312;12.372;2023-12-04T09:51:28;1.00;91.70
3418;DHT22;68007;51.312;12.372;2023-12-04T09:53:57;1.00;91.70
3418;DHT22;68007;51.312;12.372;2023-12-04T09:56:28;1.10;91.70
3418;DHT22;68007;51.312;12.372;2023-12-04T09:58:58;1.10;91.70
3418;DHT22;68007;51.312;12.372;2023-12-04T10:01:28;1.10;91.70
3418;DHT22;68007;51.312;12.372;2023-12-04T10:03:56;1.10;91.70
3418;DHT22;68007;51.312;12.372;2023-12-04T10:06:27;1.20;91.70
3418;DHT22;68007;51.312;12.372;2023-12-04T10:08:55;1.20;91.70
3418;DHT22;68007;51.312;12.372;2023-12-04T10:11:24;1.20;91.70
3418;DHT22;68007;51.312;12.372;2023-12-04T10:13:54;1.20;91.60
3418;DHT22;68007;51.312;12.372;2023-12-04T10:16:35;1.20;91.70
3418;DHT22;68007;51.312;12.372;2023-12-04T10:19:16;1.30;91.70
3418;DHT22;68007;51.312;12.372;2023-12-04T10:21:47;1.30;91.70
3418;DHT22;68007;51.312;12.372;2023-12-04T10:24:30;1.30;91.70
3418;DHT22;68007;51.312;12.372;2023-12-04T10:26:58;1.30;91.70
3418;DHT22;68007;51.312;12.372;2023-12-04T10:29:27;1.30;91.70
3418;DHT22;68007;51.312;12.372;2023-12-04T10:31:58;1.40;91.70
3418;DHT22;68007;51.312;12.372;2023-12-04T10:34:26;1.40;91.70
3418;DHT22;68007;51.312;12.372;2023-12-04T10:36:55;1.40;91.60
3418;DHT22;68007;51.312;12.372;2023-12-04T10:39:24;1.40;91.60
3418;DHT22;68007;51.312;12.372;2023-12-04T10:42:02;1.40;91.60
3418;DHT22;68007;51.312;12.372;2023-12-04T10:44:30;1.40;91.60
3418;DHT22;68007;51.312;12.372;2023-12-04T10:47:00;1.40;91.60
3418;DHT22;68007;51.312;12.372;2023-12-04T10:49:28;1.50;91.60
3418;DHT22;68007;51.312;12.372;2023-12-04T10:51:58;1.50;91.70
3418;DHT22;68007;51.312;12.372;2023-12-04T10:54:26;1.40;91.60
3418;DHT22;68007;51.312;12.372;2023-12-04T10:56:57;1.50;91.70
3418;DHT22;68007;51.312;12.372;2023-12-04T10:59:32;1.50;91.60
3418;DHT22;68007;51.312;12.372;2023-12-04T11:02:05;1.50;91.60
3418;DHT22;68007;51.312;12.372;2023-12-04T11:04:36;1.50;91.60
3418;DHT22;68007;51.312;12.372;2023-12-04T11:07:05;1.50;91.60
3418;DHT22;68007;51.312;12.372;2023-12-04T11:09:35;1.60;91.60
3418;DHT22;68007;51.312;12.372;2023-12-04T11:12:08;1.60;91.50
3418;DHT22;68007;51.312;12.372;2023-12-04T11:14:42;1.60;91.60
3418;DHT22;68007;51.312;12.372;2023-12-04T11:17:14;1.60;91.60
3418;DHT22;68007;51.312;12.372;2023-12-04T11:19:47;1.60;91.60
3418;DHT22;68007;51.312;12.372;2023-12-04T11:22:19;1.60;91.60
3418;DHT22;68007;51.312;12.372;2023-12-04T11:24:48;1.70;91.60
3418;DHT22;68007;51.312;12.372;2023-12-04T11:27:16;1.70;91.60
3418;DHT22;68007;51.312;12.372;2023-12-04T11:29:45;1.70;91.60
3418;DHT22;68007;51.312;12.372;2023-12-04T11:32:14;1.70;91.50
3418;DHT22;68007;51.312;12.372;2023-12-04T11:34:49;1.70;91.50
3418;DHT22;68007;51.312;12.372;2023-12-04T11:37:19;1.70;91.50
3418;DHT22;68007;51.312;12.372;2023-12-04T11:39:47;1.70;91.50
3418;DHT22;68007;51.312;12.372;2023-12-04T11:42:19;1.80;91.60
3418;DHT22;68007;51.312;12.372;2023-12-04T11:44:48;1.70;91.40
3418;DHT22;68007;51.312;12.372;2023-12-04T11:47:16;1.80;91.40
3418;DHT22;68007;51.312;12.372;2023-12-04T11:49:45;1.70;91.50
3418;DHT22;68007;51.312;12.372;2023-12-04T11:52:12;1.70;91.40
3418;DHT22;68007;51.312;12.372;2023-12-04T11:54:57;1.80;91.40
3418;DHT22;68007;51.312;12.372;2023-12-04T11:57:26;1.90;91.60
3418;DHT22;68007;51.312;12.372;2023-12-04T12:00:12;1.80;91.30
3418;DHT22;68007;51.312;12.372;2023-12-04T12:02:41;1.90;91.30
3418;DHT22;68007;51.312;12.372;2023-12-04T12:05:13;1.90;91.30
3418;DHT22;68007;51.312;12.372;2023-12-04T12:07:41;1.90;91.30
3418;DHT22;68007;51.312;12.372;2023-12-04T12:10:11;1.90;91.30
3418;DHT22;68007;51.312;12.372;2023-12-04T12:12:39;2.00;91.20
3418;DHT22;68007;51.312;12.372;2023-12-04T12:15:08;1.90;91.20
3418;DHT22;68007;51.312;12.372;2023-12-04T12:17:37;1.90;91.30
3418;DHT22;68007;51.312;12.372;2023-12-04T12:20:06;2.00;91.30
3418;DHT22;68007;51.312;12.372;2023-12-04T12:22:34;2.00;91.20
3418;DHT22;68007;51.312;12.372;2023-12-04T12:25:04;2.00;91.10
3418;DHT22;68007;51.312;12.372;2023-12-04T12:27:34;2.00;91.20
3418;DHT22;68007;51.312;12.372;2023-12-04T12:30:02;2.00;91.20
3418;DHT22;68007;51.312;12.372;2023-12-04T12:32:30;2.00;91.20
3418;DHT22;68007;51.312;12.372;2023-12-04T12:34:58;2.00;91.10
3418;DHT22;68007;51.312;12.372;2023-12-04T12:37:26;2.10;91.10
3418;DHT22;68007;51.312;12.372;2023-12-04T12:39:53;2.10;91.10
3418;DHT22;68007;51.312;12.372;2023-12-04T12:42:21;2.10;91.10
3418;DHT22;68007;51.312;12.372;2023-12-04T12:44:51;2.10;91.00
3418;DHT22;68007;51.312;12.372;2023-12-04T12:47:19;2.10;91.00
3418;DHT22;68007;51.312;12.372;2023-12-04T12:49:47;2.10;91.00
3418;DHT22;68007;51.312;12.372;2023-12-04T12:52:15;2.20;91.10
3418;DHT22;68007;51.312;12.372;2023-12-04T12:54:43;2.20;91.00
3418;DHT22;68007;51.312;12.372;2023-12-04T12:57:12;2.10;91.00
3418;DHT22;68007;51.312;12.372;2023-12-04T12:59:39;2.20;91.00
3418;DHT22;68007;51.312;12.372;2023-12-04T13:02:08;2.10;91.00
3418;DHT22;68007;51.312;12.372;2023-12-04T13:04:36;2.20;91.00
3418;DHT22;68007;51.312;12.372;2023-12-04T13:07:04;2.20;91.00
3418;DHT22;68007;51.312;12.372;2023-12-04T13:09:33;2.20;91.00
3418;DHT22;68007;51.312;12.372;2023-12-04T13:12:02;2.20;91.00
3418;DHT22;68007;51.312;12.372;2023-12-04T13:14:30;2.20;91.00
3418;DHT22;68007;51.312;12.372;2023-12-04T13:16:58;2.20;91.00
3418;DHT22;68007;51.312;12.372;2023-12-04T13:19:26;2.20;91.00
3418;DHT22;68007;51.312;12.372;2023-12-04T13:21:54;2.20;91.00
3418;DHT22;68007;51.312;12.372;2023-12-04T13:24:21;2.20;91.10
3418;DHT22;68007;51.312;12.372;2023-12-04T13:26:49;2.20;91.10
3418;DHT22;68007;51.312;12.372;2023-12-04T13:29:16;2.30;91.10
3418;DHT22;68007;51.312;12.372;2023-12-04T13:31:45;2.30;91.10
3418;DHT22;68007;51.312;12.372;2023-12-04T13:34:16;2.30;91.20
3418;DHT22;68007;51.312;12.372;2023-12-04T13:36:45;2.30;91.20
3418;DHT22;68007;51.312;12.372;2023-12-04T13:39:13;2.40;91.30
3418;DHT22;68007;51.312;12.372;2023-12-04T13:41:46;2.40;91.30
3418;DHT22;68007;51.312;12.372;2023-12-04T13:44:31;2.40;91.30
3418;DHT22;68007;51.312;12.372;2023-12-04T13:46:59;2.40;91.30
3418;DHT22;68007;51.312;12.372;2023-12-04T13:49:27;2.40;91.30
3418;DHT22;68007;51.312;12.372;2023-12-04T13:51:56;2.40;91.30
3418;DHT22;68007;51.312;12.372;2023-12-04T13:54:24;2.40;91.30
3418;DHT22;68007;51.312;12.372;2023-12-04T13:57:07;2.40;91.30
3418;DHT22;68007;51.312;12.372;2023-12-04T13:59:37;2.40;91.30
3418;DHT22;68007;51.312;12.372;2023-12-04T14:02:05;2.40;91.30
3418;DHT22;68007;51.312;12.372;2023-12-04T14:04:37;2.50;91.40
3418;DHT22;68007;51.312;12.372;2023-12-04T14:07:06;2.50;91.40
3418;DHT22;68007;51.312;12.372;2023-12-04T14:09:34;2.50;91.40
3418;DHT22;68007;51.312;12.372;2023-12-04T14:12:03;2.50;91.50
3418;DHT22;68007;51.312;12.372;2023-12-04T14:14:31;2.50;91.50
3418;DHT22;68007;51.312;12.372;2023-12-04T14:16:59;2.50;91.40
3418;DHT22;68007;51.312;12.372;2023-12-04T14:19:29;2.50;91.40
3418;DHT22;68007;51.312;12.372;2023-12-04T14:21:57;2.50;91.40
3418;DHT22;68007;51.312;12.372;2023-12-04T14:24:26;2.50;91.40
3418;DHT22;68007;51.312;12.372;2023-12-04T14:26:56;2.60;91.40
3418;DHT22;68007;51.312;12.372;2023-12-04T14:29:23;2.60;91.40
3418;DHT22;68007;51.312;12.372;2023-12-04T14:31:51;2.60;91.40
3418;DHT22;68007;51.312;12.372;2023-12-04T14:34:18;2.60;91.30
3418;DHT22;68007;51.312;12.372;2023-12-04T14:36:45;2.60;91.30
3418;DHT22;68007;51.312;12.372;2023-12-04T14:39:13;2.60;91.20
3418;DHT22;68007;51.312;12.372;2023-12-04T14:41:42;2.60;91.20
3418;DHT22;68007;51.312;12.372;2023-12-04T14:44:09;2.60;91.20
3418;DHT22;68007;51.312;12.372;2023-12-04T14:46:37;2.70;91.50
3418;DHT22;68007;51.312;12.372;2023-12-04T14:49:04;2.70;91.10
3418;DHT22;68007;51.312;12.372;2023-12-04T14:51:32;2.70;91.10
3418;DHT22;68007;51.312;12.372;2023-12-04T14:53:59;2.70;91.10
3418;DHT22;68007;51.312;12.372;2023-12-04T14:56:49;2.70;91.10
3418;DHT22;68007;51.312;12.372;2023-12-04T14:59:34;2.70;91.00
3418;DHT22;68007;51.312;12.372;2023-12-04T15:02:21;2.70;91.00
3418;DHT22;68007;51.312;12.372;2023-12-04T15:05:34;2.70;91.00
3418;DHT22;68007;51.312;12.372;2023-12-04T15:08:26;2.70;91.00
3418;DHT22;68007;51.312;12.372;2023-12-04T15:11:24;2.70;91.00
3418;DHT22;68007;51.312;12.372;2023-12-04T15:14:11;2.70;91.00
3418;DHT22;68007;51.312;12.372;2023-12-04T15:16:47;2.70;90.90
3418;DHT22;68007;51.312;12.372;2023-12-04T15:19:19;2.70;90.90
3418;DHT22;68007;51.312;12.372;2023-12-04T15:21:59;2.70;90.90
3418;DHT22;68007;51.312;12.372;2023-12-04T15:24:26;2.70;90.90
3418;DHT22;68007;51.312;12.372;2023-12-04T15:26:53;2.80;90.90
3418;DHT22;68007;51.312;12.372;2023-12-04T15:29:22;2.80;90.80
3418;DHT22;68007;51.312;12.372;2023-12-04T15:31:49;2.80;90.80
3418;DHT22;68007;51.312;12.372;2023-12-04T15:34:17;2.80;90.80
3418;DHT22;68007;51.312;12.372;2023-12-04T15:36:44;2.80;90.80
3418;DHT22;68007;51.312;12.372;2023-12-04T15:39:12;2.80;90.70
3418;DHT22;68007;51.312;12.372;2023-12-04T15:41:39;2.80;90.70
3418;DHT22;68007;51.312;12.372;2023-12-04T15:44:07;2.80;90.70
3418;DHT22;68007;51.312;12.372;2023-12-04T15:46:36;2.80;90.70
3418;DHT22;68007;51.312;12.372;2023-12-04T15:49:03;2.80;91.00
3418;DHT22;68007;51.312;12.372;2023-12-04T15:51:30;2.80;90.70
3418;DHT22;68007;51.312;12.372;2023-12-04T15:53:57;2.80;90.70
3418;DHT22;68007;51.312;12.372;2023-12-04T15:56:24;2.80;90.70